Time;durP1;ratioP1;P1;durP2;ratioP2;P2;SDS_P1;SDS_P2;PMS_P1;PMS_P2;Temp;Humidity;BMP_temperature;BMP_pressure;BME280_temperature;BME280_humidity;BME280_pressure;Samples;Min_cycle;Max_cycle;Signal;HPM_P1;HPM_P2
2021/04/01 00:01:31;;;;;;;43.38;32.03;;;11.60;96.00;;;;;;5083470;28;20037;-66
2021/04/01 00:03:57;;;;;;;47.25;34.17;;;11.50;95.90;;;;;;5086781;28;20085;-66
2021/04/01 00:06:23;;;;;;;51.60;34.10;;;11.50;96.10;;;;;;5087096;28;20414;-66
2021/04/01 00:08:48;;;;;;;60.40;40.67;;;11.40;96.00;;;;;;5086979;28;20040;-66
2021/04/01 00:11:15;;;;;;;57.80;42.90;;;11.40;96.50;;;;;;5085877;28;20036;-66
2021/04/01 00:13:40;;;;;;;59.88;44.33;;;11.30;96.80;;;;;;5085763;28;20147;-66
2021/04/01 00:16:06;;;;;;;61.33;43.75;;;11.30;97.10;;;;;;5088467;28;20119;-66
2021/04/01 00:18:32;;;;;;;52.05;36.85;;;11.30;96.70;;;;;;5085991;28;20589;-66
2021/04/01 00:20:58;;;;;;;59.80;43.38;;;11.10;96.90;;;;;;5084830;28;20045;-66
2021/04/01 00:23:24;;;;;;;58.28;43.03;;;11.00;97.50;;;;;;5082482;28;20036;-66
2021/04/01 00:25:50;;;;;;;50.70;37.15;;;10.70;97.50;;;;;;5083079;28;20042;-66
2021/04/01 00:28:16;;;;;;;43.95;32.38;;;10.70;97.80;;;;;;5081773;28;20039;-66
2021/04/01 00:30:42;;;;;;;53.08;39.25;;;10.80;97.30;;;;;;5082743;28;20032;-66
2021/04/01 00:33:08;;;;;;;56.22;38.83;;;10.80;97.30;;;;;;5081895;28;20046;-66
2021/04/01 00:35:33;;;;;;;54.22;41.33;;;10.90;97.20;;;;;;5082785;28;20048;-66
2021/04/01 00:38:00;;;;;;;58.25;42.20;;;10.90;97.40;;;;;;5079968;28;20050;-66
2021/04/01 00:40:26;;;;;;;63.47;46.38;;;11.00;97.20;;;;;;5080340;28;20024;-66
2021/04/01 00:42:53;;;;;;;72.68;48.22;;;11.00;97.30;;;;;;5080942;28;20032;-66
2021/04/01 00:45:19;;;;;;;80.80;54.20;;;11.00;97.00;;;;;;5082520;28;20108;-66
2021/04/01 00:47:47;;;;;;;81.10;55.45;;;11.20;97.20;;;;;;5080687;28;20065;-66
2021/04/01 00:50:19;;;;;;;89.35;57.83;;;11.20;96.80;;;;;;5082232;28;20513;-66
2021/04/01 00:52:44;;;;;;;83.93;56.83;;;11.30;96.40;;;;;;5084069;28;20046;-66
2021/04/01 00:55:11;;;;;;;80.60;53.33;;;11.30;96.30;;;;;;5085848;28;20039;-66
2021/04/01 00:57:42;;;;;;;84.05;57.97;;;11.40;96.30;;;;;;5083924;28;20044;-66
2021/04/01 01:00:11;;;;;;;85.30;55.88;;;11.40;96.10;;;;;;5080667;28;20062;-66
2021/04/01 01:02:37;;;;;;;84.65;56.67;;;11.50;95.80;;;;;;5081236;28;20043;-66
2021/04/01 01:05:05;;;;;;;86.18;56.22;;;11.50;95.90;;;;;;5083133;28;20044;-66
2021/04/01 01:07:31;;;;;;;83.35;56.67;;;11.60;95.50;;;;;;5080319;28;20478;-66
2021/04/01 01:09:57;;;;;;;88.95;58.53;;;11.70;95.30;;;;;;5084048;28;20097;-66
2021/04/01 01:12:22;;;;;;;88.10;59.10;;;11.70;95.20;;;;;;5086824;28;20071;-66
2021/04/01 01:14:49;;;;;;;89.68;59.05;;;11.70;95.30;;;;;;5086019;28;20108;-66
2021/04/01 01:17:15;;;;;;;84.45;58.35;;;11.70;94.80;;;;;;5084715;28;20038;-66
2021/04/01 01:19:45;;;;;;;92.18;59.70;;;11.80;94.70;;;;;;5083525;28;20043;-66
2021/04/01 01:22:12;;;;;;;95.15;63.38;;;11.80;94.70;;;;;;5082616;28;20043;-66
2021/04/01 01:24:38;;;;;;;89.30;59.70;;;11.80;94.50;;;;;;5091617;28;20104;-66
2021/04/01 01:27:05;;;;;;;88.97;61.30;;;11.90;94.50;;;;;;5089741;28;20482;-66
2021/04/01 01:29:32;;;;;;;91.03;61.05;;;11.90;94.60;;;;;;5086236;28;20067;-66
2021/04/01 01:31:58;;;;;;;93.78;59.92;;;11.90;94.60;;;;;;5089881;28;20119;-66
2021/04/01 01:34:24;;;;;;;97.15;62.08;;;11.90;94.50;;;;;;5086106;28;20115;-66
2021/04/01 01:36:51;;;;;;;93.22;61.40;;;11.90;94.70;;;;;;5090024;28;20040;-66
2021/04/01 01:39:16;;;;;;;90.45;61.05;;;11.90;94.60;;;;;;5092964;28;20139;-66
2021/04/01 01:41:42;;;;;;;87.97;60.88;;;11.90;94.30;;;;;;5083493;28;20128;-66
2021/04/01 01:44:08;;;;;;;90.80;59.88;;;11.90;94.20;;;;;;5085316;28;20111;-66
2021/04/01 01:46:34;;;;;;;102.28;64.97;;;12.00;94.40;;;;;;5088648;28;20050;-66
2021/04/01 01:49:00;;;;;;;93.07;60.47;;;11.90;94.90;;;;;;5088955;28;20490;-66
2021/04/01 01:51:27;;;;;;;94.00;62.47;;;12.00;94.60;;;;;;5082297;28;20047;-66
2021/04/01 01:53:53;;;;;;;100.88;64.75;;;11.90;95.00;;;;;;5084623;28;20102;-66
2021/04/01 01:56:24;;;;;;;103.38;65.85;;;11.80;95.30;;;;;;5087496;28;20506;-66
2021/04/01 01:58:55;;;;;;;99.07;64.45;;;11.80;95.70;;;;;;5087130;28;20070;-66
2021/04/01 02:01:22;;;;;;;103.55;66.07;;;11.70;95.90;;;;;;5082305;28;20036;-66
2021/04/01 02:03:49;;;;;;;96.03;65.47;;;11.60;95.90;;;;;;5083325;28;20063;-66
2021/04/01 02:06:15;;;;;;;104.93;66.50;;;11.60;96.20;;;;;;5082397;28;20109;-66
2021/04/01 02:08:41;;;;;;;88.85;59.05;;;11.60;96.20;;;;;;5083940;28;20093;-66
2021/04/01 02:11:08;;;;;;;89.75;57.88;;;11.60;96.20;;;;;;5092075;28;20036;-66
2021/04/01 02:13:34;;;;;;;94.40;63.25;;;11.70;96.20;;;;;;5097580;28;20043;-66
2021/04/01 02:16:00;;;;;;;94.45;61.95;;;11.70;96.00;;;;;;5088859;28;20028;-66
2021/04/01 02:18:30;;;;;;;89.03;58.70;;;11.70;96.30;;;;;;5092213;28;20069;-66
2021/04/01 02:21:01;;;;;;;90.80;60.50;;;11.70;96.60;;;;;;5094707;28;20048;-66
2021/04/01 02:23:31;;;;;;;94.78;61.45;;;11.70;96.50;;;;;;5093404;28;20442;-66
2021/04/01 02:25:59;;;;;;;90.50;60.58;;;11.70;96.80;;;;;;5092777;28;20040;-66
2021/04/01 02:28:29;;;;;;;99.20;66.32;;;11.70;96.40;;;;;;5088250;28;20028;-66
2021/04/01 02:30:58;;;;;;;101.88;67.45;;;11.70;96.80;;;;;;5091326;28;20044;-66
2021/04/01 02:33:27;;;;;;;101.25;66.95;;;11.70;96.70;;;;;;5092491;28;20105;-66
2021/04/01 02:35:53;;;;;;;104.43;69.03;;;11.70;96.50;;;;;;5091396;28;20036;-66
2021/04/01 02:38:19;;;;;;;98.80;65.78;;;11.70;97.00;;;;;;5094274;28;20048;-66
2021/04/01 02:40:45;;;;;;;102.40;67.95;;;11.70;97.00;;;;;;5093175;28;20382;-66
2021/04/01 02:43:13;;;;;;;103.85;68.13;;;11.70;96.60;;;;;;5093201;28;20038;-67
2021/04/01 02:45:39;;;;;;;107.03;69.75;;;11.70;96.10;;;;;;5092810;28;20071;-66
2021/04/01 02:48:05;;;;;;;113.55;71.68;;;11.70;96.20;;;;;;5091317;28;20466;-66
2021/04/01 02:50:31;;;;;;;106.53;71.35;;;11.60;96.30;;;;;;5089653;28;20509;-66
2021/04/01 02:52:57;;;;;;;98.82;67.78;;;11.60;96.10;;;;;;5094772;28;20036;-66
2021/04/01 02:55:22;;;;;;;101.75;68.75;;;11.60;95.60;;;;;;5097486;28;20035;-66
2021/04/01 02:57:48;;;;;;;106.05;70.60;;;11.60;95.50;;;;;;5091719;28;20066;-66
2021/04/01 03:00:19;;;;;;;101.05;68.55;;;11.60;95.80;;;;;;5091907;28;20505;-66
2021/04/01 03:02:57;;;;;;;106.68;70.00;;;11.60;95.60;;;;;;5092726;28;20036;-66
2021/04/01 03:05:22;;;;;;;106.13;70.35;;;11.60;95.40;;;;;;5092808;28;20591;-66
2021/04/01 03:07:48;;;;;;;104.72;68.10;;;11.60;95.60;;;;;;5092746;28;20036;-66
2021/04/01 03:10:14;;;;;;;107.10;68.82;;;11.60;95.40;;;;;;5090909;28;20055;-66
2021/04/01 03:12:41;;;;;;;107.80;70.43;;;11.60;95.50;;;;;;5091299;28;20058;-66
2021/04/01 03:15:09;;;;;;;105.15;68.72;;;11.60;95.40;;;;;;5093868;28;20059;-66
2021/04/01 03:17:35;;;;;;;104.25;69.20;;;11.60;95.40;;;;;;5095119;28;20048;-66
2021/04/01 03:20:02;;;;;;;103.50;67.32;;;11.60;95.60;;;;;;5096199;28;20050;-66
2021/04/01 03:22:28;;;;;;;104.85;70.78;;;11.50;95.20;;;;;;5091806;28;20048;-66
2021/04/01 03:24:54;;;;;;;97.55;67.93;;;11.50;95.40;;;;;;5096781;28;20031;-66
2021/04/01 03:27:19;;;;;;;95.30;68.40;;;11.50;95.20;;;;;;5090387;28;20047;-66
2021/04/01 03:30:03;;;;;;;103.40;64.40;;;11.50;95.10;;;;;;5089302;28;20482;-66
2021/04/01 03:32:49;;;;;;;106.20;68.95;;;11.50;95.00;;;;;;5091852;28;20047;-66
2021/04/01 03:35:18;;;;;;;113.78;73.43;;;11.40;95.20;;;;;;5118657;27;20467;-66
2021/04/01 03:37:46;;;;;;;107.65;70.50;;;11.40;95.40;;;;;;5088675;28;20545;-66
2021/04/01 03:40:12;;;;;;;106.97;71.95;;;11.30;95.10;;;;;;5094550;28;20047;-66
2021/04/01 03:42:38;;;;;;;114.43;73.18;;;11.30;95.00;;;;;;5092358;28;20040;-66
2021/04/01 03:45:10;;;;;;;119.25;74.93;;;11.30;95.10;;;;;;5091971;28;20693;-66
2021/04/01 03:47:36;;;;;;;111.90;72.10;;;11.30;94.90;;;;;;5091657;28;20490;-66
2021/04/01 03:50:04;;;;;;;120.03;73.28;;;11.30;94.90;;;;;;5090839;28;20044;-66
2021/04/01 03:52:30;;;;;;;125.28;76.78;;;11.30;95.20;;;;;;5092243;28;20081;-66
2021/04/01 03:54:58;;;;;;;120.60;75.43;;;11.20;94.90;;;;;;5097047;28;20093;-66
2021/04/01 03:57:24;;;;;;;116.75;76.20;;;11.20;95.10;;;;;;5092974;28;20089;-66
2021/04/01 04:02:37;;;;;;;126.93;79.15;;;11.00;95.40;;;;;;5095256;28;20039;-66
2021/04/01 04:13:45;;;;;;;123.68;78.78;;;10.90;95.30;;;;;;5030458;28;20044;-66
2021/04/01 04:16:11;;;;;;;117.68;73.78;;;10.80;95.30;;;;;;5090020;28;20109;-66
2021/04/01 04:18:37;;;;;;;125.75;74.90;;;10.70;95.40;;;;;;5094096;28;20142;-66
2021/04/01 04:21:03;;;;;;;122.95;76.43;;;10.70;95.50;;;;;;5094126;28;20516;-66
2021/04/01 04:23:29;;;;;;;129.18;78.03;;;10.60;96.10;;;;;;5091655;28;20484;-66
2021/04/01 04:25:57;;;;;;;122.72;77.82;;;10.60;95.70;;;;;;5092296;28;20097;-66
2021/04/01 04:28:32;;;;;;;123.70;76.35;;;10.50;95.90;;;;;;5087630;28;20041;-66
2021/04/01 04:30:59;;;;;;;123.55;77.18;;;10.50;95.80;;;;;;5091303;28;20072;-66
2021/04/01 04:33:26;;;;;;;124.05;76.07;;;10.40;95.80;;;;;;5093076;28;20646;-66
2021/04/01 04:35:52;;;;;;;125.97;77.88;;;10.40;95.80;;;;;;5093549;28;20046;-66
2021/04/01 04:38:18;;;;;;;116.75;72.80;;;10.30;96.00;;;;;;5088225;28;20410;-66
2021/04/01 04:40:44;;;;;;;122.13;76.22;;;10.30;95.90;;;;;;5085640;28;20692;-66
2021/04/01 04:43:10;;;;;;;115.93;75.25;;;10.30;95.80;;;;;;5088665;28;20447;-66
2021/04/01 04:45:36;;;;;;;124.50;76.95;;;10.40;95.80;;;;;;5085570;28;20048;-66
2021/04/01 04:48:01;;;;;;;118.70;75.88;;;10.30;95.70;;;;;;5089093;28;20039;-66
2021/04/01 04:50:27;;;;;;;119.75;76.03;;;10.30;95.80;;;;;;5090604;28;20040;-65
2021/04/01 04:52:53;;;;;;;123.38;77.53;;;10.20;96.00;;;;;;5091978;28;20535;-66
2021/04/01 04:55:19;;;;;;;120.80;76.10;;;10.10;96.00;;;;;;5091857;28;20599;-66
2021/04/01 04:57:52;;;;;;;123.40;76.40;;;10.10;95.90;;;;;;5088027;28;20104;-66
2021/04/01 05:00:37;;;;;;;118.18;75.35;;;10.10;95.90;;;;;;5090816;28;20123;-66
2021/04/01 05:05:55;;;;;;;114.35;72.65;;;10.00;95.80;;;;;;5088090;28;20118;-66
2021/04/01 05:08:21;;;;;;;116.32;73.50;;;10.00;95.90;;;;;;5088951;28;20063;-66
2021/04/01 05:10:48;;;;;;;113.65;72.80;;;9.90;95.90;;;;;;5089553;28;20098;-66
2021/04/01 05:13:15;;;;;;;111.25;74.28;;;9.90;96.00;;;;;;5090289;28;20873;-66
2021/04/01 05:15:47;;;;;;;115.35;77.28;;;9.80;96.10;;;;;;5092061;28;20040;-66
2021/04/01 05:18:17;;;;;;;118.18;77.10;;;9.70;96.20;;;;;;5091719;28;20086;-66
2021/04/01 05:20:44;;;;;;;112.38;73.65;;;9.70;96.20;;;;;;5091822;28;20048;-66
2021/04/01 05:23:21;;;;;;;107.22;71.80;;;9.70;96.30;;;;;;5094203;28;20051;-66
2021/04/01 05:25:48;;;;;;;112.32;72.65;;;9.60;96.40;;;;;;5091632;28;20139;-66
2021/04/01 05:30:49;;;;;;;115.45;75.63;;;9.60;96.40;;;;;;5086757;28;20422;-66
2021/04/01 05:33:16;;;;;;;108.10;73.45;;;9.60;96.60;;;;;;5091910;28;20056;-66
2021/04/01 05:35:42;;;;;;;113.82;76.32;;;9.60;96.90;;;;;;5090750;28;20089;-66
2021/04/01 05:38:08;;;;;;;115.72;75.13;;;9.50;96.70;;;;;;5086990;28;20490;-66
2021/04/01 05:40:34;;;;;;;120.38;77.65;;;9.40;96.90;;;;;;5087133;28;20085;-65
2021/04/01 05:43:06;;;;;;;115.25;76.63;;;9.40;97.00;;;;;;5092123;28;20059;-65
2021/04/01 05:48:15;;;;;;;113.40;75.75;;;9.20;97.40;;;;;;5086655;28;20047;-65
2021/04/01 05:51:18;;;;;;;119.93;76.57;;;9.30;97.50;;;;;;5087136;28;20126;-65
2021/04/01 06:04:17;;;;;;;105.78;70.32;;;9.10;98.40;;;;;;5090683;28;20036;-66
2021/04/01 06:06:54;;;;;;;101.13;67.93;;;9.00;98.60;;;;;;5092840;28;20753;-65
2021/04/01 06:09:27;;;;;;;107.78;63.53;;;8.90;99.10;;;;;;5090873;28;20047;-65
2021/04/01 06:11:56;;;;;;;84.20;55.50;;;8.80;98.90;;;;;;5090972;28;20075;-65
2021/04/01 06:14:33;;;;;;;74.40;49.63;;;8.90;98.60;;;;;;5090674;28;20127;-65
2021/04/01 06:17:12;;;;;;;74.40;47.85;;;9.10;98.10;;;;;;5088866;28;20032;-65
2021/04/01 06:19:39;;;;;;;74.50;45.50;;;9.30;97.70;;;;;;5088162;28;20502;-65
2021/04/01 06:22:09;;;;;;;60.65;39.53;;;9.40;97.50;;;;;;5088502;28;20032;-65
2021/04/01 06:24:37;;;;;;;59.38;37.10;;;9.50;97.20;;;;;;5087586;28;20393;-65
2021/04/01 06:27:15;;;;;;;48.05;32.72;;;9.80;96.40;;;;;;5087108;28;20051;-65
2021/04/01 06:32:30;;;;;;;37.97;21.17;;;10.00;95.30;;;;;;5084854;28;20665;-65
2021/04/01 06:35:08;;;;;;;29.10;15.43;;;10.00;94.50;;;;;;5088680;28;20561;-65
2021/04/01 06:40:06;;;;;;;23.05;12.77;;;10.20;94.40;;;;;;5075457;28;20075;-65
2021/04/01 06:43:02;;;;;;;16.17;7.15;;;10.40;93.70;;;;;;5072421;28;20045;-65
2021/04/01 06:45:29;;;;;;;18.37;7.27;;;10.70;92.00;;;;;;5075721;28;20032;-65
2021/04/01 06:47:57;;;;;;;19.33;7.47;;;10.70;92.10;;;;;;5102958;27;20055;-65
2021/04/01 06:50:27;;;;;;;18.65;8.40;;;10.80;91.30;;;;;;5075144;28;20032;-65
2021/04/01 06:53:17;;;;;;;20.80;6.47;;;10.70;91.20;;;;;;5072958;28;20036;-65
2021/04/01 06:55:57;;;;;;;16.85;6.35;;;10.80;90.50;;;;;;5080256;28;20505;-65
2021/04/01 06:58:49;;;;;;;16.75;6.18;;;10.90;90.10;;;;;;5081887;28;20134;-65
2021/04/01 07:01:36;;;;;;;14.30;5.97;;;11.00;91.10;;;;;;5078992;28;20083;-65
2021/04/01 07:04:05;;;;;;;16.45;6.22;;;10.80;90.00;;;;;;5083192;28;20432;-65
2021/04/01 07:06:39;;;;;;;15.95;4.90;;;10.90;90.80;;;;;;5079577;28;20097;-65
2021/04/01 07:12:17;;;;;;;17.80;4.25;;;11.10;91.50;;;;;;5081490;28;20039;-65
2021/04/01 07:14:47;;;;;;;15.33;4.40;;;11.00;90.00;;;;;;5079849;28;20167;-65
2021/04/01 07:17:22;;;;;;;14.50;3.80;;;11.00;91.10;;;;;;5083346;28;20039;-65
2021/04/01 07:31:45;;;;;;;17.60;3.10;;;10.60;91.80;;;;;;5084480;28;20067;-65
2021/04/01 07:47:38;;;;;;;14.60;2.55;;;10.70;92.60;;;;;;5079643;28;20096;-65
2021/04/01 07:50:11;;;;;;;18.73;3.83;;;10.80;92.40;;;;;;5080904;28;20120;-65
2021/04/01 07:52:39;;;;;;;14.68;2.83;;;10.90;92.40;;;;;;5080076;28;20098;-65
2021/04/01 07:55:12;;;;;;;20.55;2.95;;;11.00;93.40;;;;;;5081067;28;20449;-65
2021/04/01 08:03:52;;;;;;;19.25;3.50;;;10.70;93.40;;;;;;5068685;28;20142;-65
2021/04/01 08:06:21;;;;;;;16.75;4.57;;;11.00;92.40;;;;;;5080025;28;20156;-65
2021/04/01 08:08:49;;;;;;;21.02;3.83;;;11.00;93.40;;;;;;5078576;28;20089;-65
2021/04/01 08:11:28;;;;;;;23.88;4.18;;;11.00;92.90;;;;;;5080065;28;20040;-65
2021/04/01 08:14:06;;;;;;;25.15;4.95;;;11.30;93.80;;;;;;5080491;28;20135;-65
2021/04/01 08:16:43;;;;;;;14.98;2.92;;;11.40;92.00;;;;;;5081103;28;20410;-65
2021/04/01 08:19:13;;;;;;;18.15;3.78;;;11.80;93.10;;;;;;5078634;28;20044;-65
2021/04/01 08:21:42;;;;;;;18.85;3.53;;;12.30;92.20;;;;;;5080013;28;20044;-65
2021/04/01 08:24:12;;;;;;;15.68;3.55;;;12.40;90.90;;;;;;5078251;28;20036;-65
2021/04/01 08:26:58;;;;;;;21.60;3.95;;;13.30;91.50;;;;;;5080468;28;20044;-65
2021/04/01 08:35:02;;;;;;;14.45;2.50;;;12.50;90.70;;;;;;5065715;28;20051;-65
2021/04/01 08:37:33;;;;;;;15.48;2.58;;;12.70;90.20;;;;;;5079461;28;20047;-65
2021/04/01 08:40:00;;;;;;;16.42;2.47;;;12.80;90.30;;;;;;5081729;28;20167;-65
2021/04/01 08:42:55;;;;;;;18.42;3.72;;;12.90;91.00;;;;;;5078437;28;20044;-66
2021/04/01 08:45:36;;;;;;;14.90;3.47;;;12.50;90.70;;;;;;5078403;28;20044;-65
2021/04/01 08:48:23;;;;;;;17.83;3.08;;;12.90;91.10;;;;;;5078500;28;20384;-65
2021/04/01 08:51:08;;;;;;;12.73;2.20;;;13.00;90.60;;;;;;5080707;28;20043;-66
2021/04/01 08:54:00;;;;;;;17.73;3.13;;;12.60;90.20;;;;;;5078479;28;20040;-65
2021/04/01 08:56:27;;;;;;;10.82;2.28;;;12.00;91.30;;;;;;5080937;28;20059;-65
2021/04/01 08:59:23;;;;;;;14.65;3.22;;;11.20;92.70;;;;;;5077855;28;20517;-65
2021/04/01 09:01:51;;;;;;;13.07;2.28;;;11.30;93.40;;;;;;5081981;28;20032;-65
2021/04/01 09:04:25;;;;;;;24.52;3.63;;;10.90;93.50;;;;;;5077858;28;20085;-65
2021/04/01 09:06:56;;;;;;;21.88;3.42;;;10.80;94.00;;;;;;5080115;28;20048;-65
2021/04/01 09:09:32;;;;;;;11.95;2.63;;;10.70;94.40;;;;;;5077585;28;20103;-65
2021/04/01 09:14:35;;;;;;;10.88;2.25;;;10.50;94.40;;;;;;5075234;28;20043;-65
2021/04/01 09:17:13;;;;;;;10.70;1.83;;;10.70;94.30;;;;;;5076905;28;20040;-65
2021/04/01 09:19:45;;;;;;;11.38;2.78;;;10.60;94.60;;;;;;5076565;28;20060;-65
2021/04/01 09:22:21;;;;;;;14.80;1.92;;;10.60;94.60;;;;;;5078662;28;20059;-65
2021/04/01 09:24:55;;;;;;;;;;;10.60;93.90;;;;;;5076183;28;20399;-65
2021/04/01 09:27:21;;;;;;;11.88;1.75;;;10.80;94.50;;;;;;5077872;28;19928;-65
2021/04/01 09:29:48;;;;;;;13.25;2.00;;;10.80;94.50;;;;;;5078178;28;20051;-65
2021/04/01 09:32:15;;;;;;;9.80;1.30;;;10.90;93.90;;;;;;5077045;28;20042;-65
2021/04/01 09:34:47;;;;;;;12.80;1.70;;;10.90;93.80;;;;;;5077312;28;20048;-65
2021/04/01 09:37:15;;;;;;;13.23;1.92;;;11.10;94.30;;;;;;5077763;28;20093;-65
2021/04/01 09:39:42;;;;;;;11.95;2.13;;;11.10;92.90;;;;;;5076984;28;20070;-65
2021/04/01 09:42:13;;;;;;;10.00;1.70;;;11.10;92.80;;;;;;5078729;28;20107;-65
2021/04/01 09:44:53;;;;;;;13.90;1.90;;;11.20;92.50;;;;;;5093190;27;20079;-65
2021/04/01 09:47:44;;;;;;;7.97;1.30;;;11.30;92.90;;;;;;5077113;28;20109;-65
2021/04/01 09:50:12;;;;;;;9.52;1.63;;;11.60;93.10;;;;;;5080001;28;20480;-65
2021/04/01 09:52:53;;;;;;;13.48;2.90;;;11.70;92.20;;;;;;5076981;28;20177;-65
2021/04/01 09:55:20;;;;;;;10.52;1.70;;;11.80;92.50;;;;;;5077842;28;20036;-65
2021/04/01 09:57:50;;;;;;;9.93;1.80;;;11.80;91.70;;;;;;5077495;28;20043;-65
2021/04/01 10:03:03;;;;;;;10.75;1.60;;;11.60;91.70;;;;;;5077318;28;20838;-65
2021/04/01 10:05:37;;;;;;;13.45;1.95;;;11.50;92.20;;;;;;5079062;28;20124;-65
2021/04/01 10:08:03;;;;;;;15.73;2.78;;;11.50;92.30;;;;;;5080153;28;20048;-65
2021/04/01 10:10:44;;;;;;;17.55;1.63;;;11.60;92.30;;;;;;5077119;28;20040;-65
2021/04/01 10:13:20;;;;;;;14.27;2.05;;;11.80;93.50;;;;;;5077660;28;20044;-65
2021/04/01 10:15:47;;;;;;;10.50;1.52;;;11.90;92.00;;;;;;5081077;28;20066;-65
2021/04/01 10:18:20;;;;;;;10.98;1.85;;;11.80;91.90;;;;;;5077847;28;20127;-65
2021/04/01 10:20:53;;;;;;;10.57;1.92;;;12.20;93.90;;;;;;5079430;28;20086;-65
2021/04/01 10:23:20;;;;;;;11.25;1.77;;;12.30;92.40;;;;;;5076130;28;20047;-65
2021/04/01 10:25:53;;;;;;;13.02;2.03;;;12.00;91.70;;;;;;5079905;28;20040;-65
2021/04/01 10:28:28;;;;;;;8.32;1.30;;;11.90;91.90;;;;;;5077015;28;20032;-65
2021/04/01 10:30:56;;;;;;;10.02;1.48;;;11.80;91.00;;;;;;5081060;28;20520;-65
2021/04/01 10:33:37;;;;;;;8.98;1.55;;;11.90;90.90;;;;;;5079564;28;20040;-65
2021/04/01 10:36:07;;;;;;;10.65;2.50;;;11.60;90.00;;;;;;5082480;28;20805;-65
2021/04/01 10:38:35;;;;;;;11.20;2.03;;;11.40;91.30;;;;;;5080563;28;20044;-65
2021/04/01 10:41:11;;;;;;;12.60;2.20;;;11.50;92.60;;;;;;5081406;28;20482;-65
2021/04/01 10:43:39;;;;;;;;;;;11.80;91.80;;;;;;5086775;28;20040;-66
2021/04/01 10:46:06;;;;;;;11.18;1.30;;;12.00;91.20;;;;;;5081068;28;19924;-65
2021/04/01 10:48:36;;;;;;;13.40;2.05;;;12.20;91.90;;;;;;5084250;28;20039;-65
2021/04/01 10:51:07;;;;;;;13.18;1.40;;;12.00;90.00;;;;;;5081028;28;20056;-65
2021/04/01 10:53:38;;;;;;;9.23;1.73;;;12.00;87.90;;;;;;5079402;28;20046;-65
2021/04/01 10:56:06;;;;;;;9.95;2.10;;;12.20;90.30;;;;;;5079790;28;20055;-65
2021/04/01 10:58:33;;;;;;;10.50;1.73;;;12.10;86.20;;;;;;5081008;28;20044;-65
2021/04/01 11:01:00;;;;;;;9.65;1.67;;;12.00;88.80;;;;;;5082180;28;20134;-65
2021/04/01 11:03:32;;;;;;;11.50;1.80;;;11.80;87.70;;;;;;5081868;28;20040;-65
2021/04/01 11:06:01;;;;;;;9.52;1.35;;;11.90;89.00;;;;;;5082078;28;20039;-65
2021/04/01 11:08:39;;;;;;;7.70;1.35;;;12.20;87.50;;;;;;5082959;28;20051;-65
2021/04/01 11:11:06;;;;;;;11.02;1.27;;;12.10;82.60;;;;;;5080253;28;20035;-66
2021/04/01 11:13:38;;;;;;;10.57;1.58;;;11.80;80.70;;;;;;5081531;28;20114;-65
2021/04/01 11:16:06;;;;;;;13.10;2.38;;;11.80;84.60;;;;;;5078831;28;20044;-65
2021/04/01 11:18:40;;;;;;;10.07;1.92;;;11.80;87.30;;;;;;5079500;28;20043;-65
2021/04/01 11:21:06;;;;;;;18.88;2.55;;;11.90;89.80;;;;;;5078629;28;20542;-66
2021/04/01 11:23:34;;;;;;;14.07;1.98;;;12.00;86.50;;;;;;5082922;28;20557;-66
2021/04/01 11:26:02;;;;;;;14.93;2.33;;;12.10;89.10;;;;;;5078481;28;20031;-65
2021/04/01 11:28:49;;;;;;;17.40;2.92;;;12.40;90.50;;;;;;5080894;28;20050;-66
2021/04/01 11:31:27;;;;;;;15.32;1.77;;;12.20;89.20;;;;;;5080855;28;20040;-65
2021/04/01 11:33:54;;;;;;;17.23;2.35;;;12.40;90.40;;;;;;5081319;28;20036;-66
2021/04/01 11:36:21;;;;;;;15.18;3.22;;;12.50;87.40;;;;;;5078826;28;20044;-65
2021/04/01 11:38:50;;;;;;;14.75;2.28;;;12.80;89.30;;;;;;5080237;28;20055;-66
2021/04/01 11:41:18;;;;;;;8.82;2.47;;;12.70;85.20;;;;;;5079479;28;20040;-66
2021/04/01 11:43:48;;;;;;;14.98;2.17;;;12.30;84.10;;;;;;5077916;28;20031;-66
2021/04/01 11:46:20;;;;;;;16.05;2.30;;;12.20;85.00;;;;;;5083035;28;21668;-65
2021/04/01 11:48:47;;;;;;;12.02;2.78;;;11.90;87.50;;;;;;5075432;28;20075;-66
2021/04/01 11:51:19;;;;;;;17.63;4.22;;;11.80;89.70;;;;;;5080465;28;20059;-66
2021/04/01 11:53:45;;;;;;;25.13;4.13;;;12.20;90.40;;;;;;5080026;28;20082;-65
2021/04/01 11:56:11;;;;;;;20.98;3.85;;;11.80;85.70;;;;;;5080711;28;20082;-66
2021/04/01 11:58:37;;;;;;;11.82;2.35;;;11.80;87.40;;;;;;5081316;28;20486;-66
2021/04/01 12:01:11;;;;;;;13.15;2.90;;;12.20;89.50;;;;;;5082739;28;20063;-66
2021/04/01 12:06:25;;;;;;;;;;;12.60;88.00;;;;;;5080484;28;20078;-66
2021/04/01 12:08:51;;;;;;;15.63;3.83;;;12.80;87.30;;;;;;5078649;28;19924;-65
2021/04/01 12:11:16;;;;;;;14.85;1.75;;;12.90;86.10;;;;;;5080738;28;20043;-65
2021/04/01 12:13:42;;;;;;;14.65;2.13;;;12.30;79.60;;;;;;5080586;28;20086;-65
2021/04/01 12:16:18;;;;;;;16.23;2.58;;;11.80;87.00;;;;;;5081711;28;20387;-66
2021/04/01 12:18:46;;;;;;;16.98;2.75;;;11.90;89.60;;;;;;5080023;28;20658;-66
2021/04/01 12:21:12;;;;;;;16.83;2.38;;;12.20;90.00;;;;;;5080929;28;20047;-65
2021/04/01 12:24:01;;;;;;;20.20;2.80;;;12.10;85.30;;;;;;5081075;28;20150;-66
2021/04/01 12:26:30;;;;;;;15.85;2.40;;;12.30;89.40;;;;;;5079112;28;21409;-66
2021/04/01 12:29:00;;;;;;;17.67;3.83;;;12.40;85.70;;;;;;5080475;28;20081;-66
2021/04/01 12:31:41;;;;;;;12.63;2.67;;;12.50;85.70;;;;;;5081136;28;20052;-65
2021/04/01 12:34:12;;;;;;;15.50;2.72;;;12.10;83.70;;;;;;5080693;28;20120;-66
2021/04/01 12:36:40;;;;;;;16.48;2.25;;;12.10;82.80;;;;;;5078806;28;20113;-66
2021/04/01 12:39:10;;;;;;;16.25;2.60;;;11.90;82.60;;;;;;5079068;28;20067;-66
2021/04/01 12:41:38;;;;;;;13.13;2.80;;;11.70;81.50;;;;;;5107961;27;20045;-66
2021/04/01 12:44:04;;;;;;;17.85;2.78;;;11.80;85.00;;;;;;5078675;28;20563;-66
2021/04/01 12:46:40;;;;;;;15.35;2.30;;;11.90;86.00;;;;;;5072341;28;20036;-65
2021/04/01 12:49:06;;;;;;;;;;;12.10;87.90;;;;;;5080335;28;20048;-65
2021/04/01 12:51:52;;;;;;;11.32;2.45;;;12.40;85.80;;;;;;5076276;28;20358;-65
2021/04/01 12:54:24;;;;;;;17.98;3.55;;;12.00;78.40;;;;;;5076338;28;20036;-66
2021/04/01 12:57:00;;;;;;;11.15;2.65;;;11.80;84.20;;;;;;5078434;28;20414;-65
2021/04/01 12:59:39;;;;;;;;;;;11.80;82.70;;;;;;5079870;28;20039;-65
2021/04/01 13:02:12;;;;;;;14.43;2.45;;;11.70;82.10;;;;;;5106282;27;19919;-65
2021/04/01 13:04:42;;;;;;;14.10;2.63;;;11.70;81.80;;;;;;5077014;28;20097;-65
2021/04/01 13:09:50;;;;;;;17.23;3.15;;;11.60;81.70;;;;;;5078973;28;20035;-65
2021/04/01 13:12:18;;;;;;;14.20;2.92;;;11.60;80.20;;;;;;5076484;28;20051;-65
2021/04/01 13:14:46;;;;;;;13.77;2.65;;;11.50;83.20;;;;;;5080783;28;20044;-66
2021/04/01 13:17:13;;;;;;;16.30;2.90;;;11.30;82.30;;;;;;5078975;28;20671;-65
2021/04/01 13:19:39;;;;;;;14.35;2.13;;;11.20;82.00;;;;;;5077175;28;20497;-65
2021/04/01 13:22:09;;;;;;;13.00;2.67;;;10.90;84.00;;;;;;5091319;27;20027;-65
2021/04/01 13:27:11;;;;;;;12.23;2.17;;;11.00;83.70;;;;;;5077203;28;20040;-65
2021/04/01 13:29:40;;;;;;;12.90;2.45;;;10.80;83.60;;;;;;5080077;28;20044;-65
2021/04/01 13:32:18;;;;;;;14.18;2.22;;;10.70;83.50;;;;;;5078525;28;20988;-65
2021/04/01 13:34:57;;;;;;;8.38;1.98;;;10.70;85.20;;;;;;5077944;28;21703;-65
2021/04/01 13:37:34;;;;;;;12.02;2.60;;;10.80;87.80;;;;;;5077042;28;20044;-65
2021/04/01 13:40:04;;;;;;;11.13;1.92;;;11.10;90.00;;;;;;5079454;28;20032;-65
2021/04/01 13:42:36;;;;;;;9.73;1.83;;;10.90;88.20;;;;;;5076279;28;21202;-67
2021/04/01 13:45:11;;;;;;;13.02;1.92;;;10.90;87.20;;;;;;5079618;28;20050;-65
2021/04/01 13:47:41;;;;;;;;;;;10.90;90.30;;;;;;5078234;28;20048;-65
2021/04/01 13:50:11;;;;;;;10.88;1.65;;;10.60;89.60;;;;;;5078575;28;19991;-65
2021/04/01 13:52:45;;;;;;;6.30;1.50;;;10.80;91.60;;;;;;5077904;28;20107;-65
2021/04/01 14:10:59;;;;;;;4.70;0.88;;;10.70;91.80;;;;;;5081978;28;20036;-65
2021/04/01 14:13:28;;;;;;;5.90;0.77;;;10.60;90.20;;;;;;5080582;28;20040;-65
2021/04/01 14:15:55;;;;;;;6.40;0.80;;;10.40;90.40;;;;;;5081140;28;20044;-65
2021/04/01 14:18:23;;;;;;;11.05;1.73;;;10.30;91.00;;;;;;5079972;28;20043;-65
2021/04/01 14:20:49;;;;;;;5.20;1.00;;;10.60;91.70;;;;;;5080303;28;20036;-65
2021/04/01 14:23:20;;;;;;;6.55;1.00;;;10.50;91.20;;;;;;5083458;28;20072;-65
2021/04/01 14:25:47;;;;;;;8.13;0.95;;;10.50;92.10;;;;;;5083380;28;20121;-65
2021/04/01 14:28:15;;;;;;;4.32;0.88;;;10.40;91.30;;;;;;5081452;28;20054;-65
2021/04/01 14:30:41;;;;;;;3.83;0.88;;;10.20;92.30;;;;;;5078242;28;20048;-66
2021/04/01 14:33:07;;;;;;;3.03;0.57;;;10.10;91.70;;;;;;5082774;28;20046;-65